Yantic, Connecticut
Current Conditions -  °F | °C
As of 2:52 PM on Tuesday 25 Nov 2014 (Local Time) from KIJD Reporting Station
Clear Clear  
Wind Chill: 56°   Ceiling: Unl
Heat Index: 56°   Visibility: 10mi
Dew Point: 25°   Wind: 6mph
Humidity: 30%   Direction: 230°SW
Pressure: 29.93"   Gusts: NA
Location:  41.56°N, 72.12°W
Report Text: KIJD 251952Z AUTO 23005KT 10SM CLR 13/M04 A2993 RMK AO2 SLP134 T01331039
Loading
Personal Weather Stations






























Interactive Weather Map New forecast layout! Learn more

10-Day Weather Forecast

Advertisements
Track Severe Weather on mobile